Date,TemperatureHighF,TemperatureAvgF,TemperatureLowF,DewpointHighF,DewpointAvgF,DewpointLowF,HumidityHigh,HumidityAvg,HumidityLow,PressureMaxIn,PressureMinIn,WindSpeedMaxMPH,WindSpeedAvgMPH,GustSpeedMaxMPH,PrecipitationSumIn
2013-1-1,79,69,61,63,61,58,96,78,51,0.00,40.00,14,5,21,0.00
2013-1-2,83,69,60,69,63,59,99,82,47,0.00,40.00,8,4,14,0.00
2013-1-3,84,71,63,69,64,62,99,82,50,0.00,40.00,9,4,18,0.00
2013-1-4,81,70,62,70,66,62,99,87,62,0.00,40.00,7,4,12,0.00
2013-1-5,75,68,65,69,66,64,99,92,76,0.00,40.00,7,4,18,0.00
2013-1-6,82,72,64,72,67,64,100,88,63,0.00,40.00,11,5,18,0.01
2013-1-7,75,70,66,70,68,65,99,92,77,0.00,40.00,9,5,13,0.00
2013-1-8,84,74,68,72,69,67,99,86,57,0.00,40.00,13,6,20,0.00
2013-1-9,83,75,71,71,69,68,98,83,63,0.00,40.00,14,8,22,0.00
2013-1-10,81,73,67,69,66,63,96,80,56,0.00,40.00,16,8,26,0.00
2013-1-11,81,72,66,70,67,65,98,84,63,0.00,40.00,13,6,20,0.00
2013-1-12,81,73,67,69,67,63,95,82,57,0.00,40.00,11,6,19,0.03
2013-1-13,82,72,66,68,65,62,97,81,52,0.00,40.00,13,6,21,0.01
2013-1-14,81,72,64,68,64,60,98,81,52,0.00,40.00,11,5,18,0.01
2013-1-15,77,70,65,70,66,64,98,89,69,0.00,40.00,9,4,15,0.02
2013-1-16,82,71,62,69,66,61,98,84,57,0.00,40.00,11,4,15,0.01
2013-1-17,79,70,59,71,64,52,98,84,63,0.00,40.00,19,7,30,0.01
2013-1-18,72,61,52,59,52,45,89,73,56,0.00,40.00,12,7,19,0.00
2013-1-19,73,66,61,67,63,58,98,91,77,0.00,40.00,9,4,14,0.03
2013-1-20,81,69,60,68,64,60,99,85,58,0.00,40.00,9,4,14,0.01
2013-1-21,81,70,63,71,65,62,99,85,56,0.00,40.00,10,4,17,0.00
2013-1-22,76,65,58,62,57,53,99,77,52,0.00,40.00,14,8,22,0.00
2013-1-23,75,64,57,57,54,51,93,74,43,0.00,40.00,11,6,18,0.00
2013-1-24,75,63,53,56,50,41,94,67,32,0.00,40.00,8,5,16,0.00
2013-1-25,77,64,53,59,54,51,96,76,48,0.00,40.00,9,6,13,0.00
2013-1-26,79,65,55,61,55,52,97,75,39,0.00,40.00,8,5,13,0.00
2013-1-27,80,68,58,62,58,55,95,75,43,0.00,40.00,11,6,20,0.00
2013-1-28,81,71,62,66,62,59,96,77,49,0.00,40.00,13,7,20,0.00
2013-1-29,82,72,63,70,66,62,99,83,61,0.00,40.00,14,6,21,0.00
2013-1-30,81,72,64,67,64,62,97,79,54,0.00,40.00,15,8,25,0.00
2013-1-31,68,63,54,66,53,43,94,71,58,0.00,40.00,13,8,24,0.00